Latest Weather Observations for Montague Island

IDN60801

Issued at 1:05 pm EDT Thursday 23 October 2014 (issued every 30 minutes, with the page automatically refreshed every 10 minutes)

About weather observations | Map of weather stations | Latest weather observations for NSW | Other Formats
Station Details ID: 069017 Name: MONTAGUE ISLAND LIGHTHOUSE Lat: -36.25 Lon: 150.23 Height: 52.0 m
Data from the previous 72 hours. | See also: Recent months at Montague Island
Date/Time
EDT
Temp
°C
App
Temp
°C
Dew
Point
Rel
Hum
%
Delta-T
°C
Wind Press
QNH
hPa
Press
MSL
hPa
Rain
since 9 am
mm
Dir
 
Spd
km/h
Gust
km/h
Spd
kts
Gust
kts
23/01:00pm 20.3 20.9 16.9 81 2.1 ESE 9 13 5 7 1017.9 1017.8 -
23/12:30pm 19.6 20.1 16.6 83 1.8 ESE 9 11 5 6 1018.0 1017.9 -
23/12:00pm 19.2 19.9 15.7 80 2.1 ESE 6 7 3 4 1018.2 1018.1 -
23/11:00am 19.5 20.0 15.6 78 2.3 N 7 11 4 6 1017.7 1017.6 0.0
23/10:30am 18.9 19.4 15.6 81 2.0 NNW 7 9 4 5 1017.9 1017.8 0.0
23/10:00am 18.7 20.1 16.5 87 1.3 NNW 4 7 2 4 1017.9 1017.8 0.0
23/09:30am 17.8 18.4 15.8 88 1.2 E 7 9 4 5 1017.8 1017.7 0.0
23/09:00am 18.4 19.2 15.8 85 1.5 ESE 6 11 3 6 1017.8 1017.7 0.0
23/08:30am 17.6 18.2 15.4 87 1.3 NNE 6 11 3 6 1017.6 1017.5 0.0
23/08:00am 16.9 17.9 15.4 91 0.9 NNW 4 6 2 3 1017.7 1017.6 0.0
23/07:30am 16.5 16.9 15.4 93 0.6 NNW 7 9 4 5 1017.5 1017.4 0.0
23/07:00am 16.4 17.1 15.6 95 0.5 NNE 6 7 3 4 1017.2 1017.1 0.0
23/06:30am 15.6 15.9 14.6 94 0.6 NNE 6 7 3 4 1016.9 1016.8 0.0
23/06:00am 15.5 16.2 14.5 94 0.6 SW 4 4 2 2 1016.9 1016.8 0.0
23/05:30am 15.6 16.4 14.8 95 0.5 S 4 6 2 3 1016.5 1016.4 0.0
23/05:00am 15.4 15.5 14.4 94 0.6 SW 7 13 4 7 1016.2 1016.1 0.0
23/04:30am 15.6 15.3 14.5 93 0.6 W 9 15 5 8 1016.3 1016.2 0.0
23/04:00am 15.4 16.4 14.3 93 0.6 W 2 6 1 3 1015.8 1015.7 0.0
23/03:30am 15.5 15.8 14.5 94 0.6 W 6 7 3 4 1016.1 1016.0 0.0
23/03:00am 15.8 16.1 15.0 95 0.5 NW 7 9 4 5 1016.4 1016.3 0.0
23/02:30am 16.2 16.6 15.2 94 0.6 NNW 7 9 4 5 1016.6 1016.5 0.0
23/02:00am 16.0 15.5 14.9 93 0.6 N 11 13 6 7 1017.2 1017.1 0.0
23/01:30am 16.4 15.3 15.3 93 0.6 N 15 19 8 10 1017.3 1017.2 0.0
23/01:00am 16.7 14.9 15.6 93 0.6 N 19 22 10 12 1017.8 1017.7 0.0
23/12:30am 17.1 15.5 16.0 93 0.7 N 19 26 10 14 1018.0 1017.9 0.0
23/12:00am 17.2 15.6 16.1 93 0.7 N 19 24 10 13 1018.2 1018.1 0.0
 
Date/Time
EDT
Temp
°C
App
Temp
°C
Dew
Point
Rel
Hum
%
Delta-T
°C
Wind Press
QNH
hPa
Press
MSL
hPa
Rain
since 9 am
mm
Dir
 
Spd
km/h
Gust
km/h
Spd
kts
Gust
kts
22/11:30pm 17.3 16.1 16.0 92 0.8 N 17 22 9 12 1018.7 1018.6 0.0
22/11:00pm 17.4 16.1 15.9 91 0.9 N 17 22 9 12 1018.9 1018.8 0.0
22/10:30pm 17.5 15.6 15.8 90 1.0 N 20 26 11 14 1019.2 1019.1 0.0
22/10:00pm 17.7 14.6 15.7 88 1.2 N 26 33 14 18 1019.0 1018.9 0.0
22/09:30pm 17.8 13.6 15.6 87 1.3 N 32 37 17 20 1019.1 1019.0 0.0
22/09:00pm 17.9 13.4 15.5 86 1.4 NNE 33 41 18 22 1019.0 1018.9 0.0
22/08:30pm 17.9 13.1 15.5 86 1.4 NNE 35 41 19 22 1018.9 1018.8 0.0
22/08:00pm 17.9 13.9 15.3 85 1.5 NNE 30 35 16 19 1019.0 1018.9 0.0
22/07:30pm 18.0 13.4 15.1 83 1.7 NNE 33 41 18 22 1019.0 1018.9 0.0
22/07:00pm 18.0 13.0 15.1 83 1.7 NNE 35 43 19 23 1018.5 1018.4 0.0
22/06:30pm 18.1 12.8 15.2 83 1.7 NNE 37 46 20 25 1018.5 1018.4 0.0
22/06:00pm 18.3 12.8 14.8 80 2.0 NNE 37 43 20 23 1018.5 1018.4 0.0
22/05:30pm 18.3 13.4 14.4 78 2.3 NNE 33 43 18 23 1018.5 1018.4 0.0
22/05:00pm 18.5 13.1 14.0 75 2.6 NNE 35 43 19 23 1018.7 1018.6 0.0
22/04:30pm 18.7 13.6 13.8 73 2.8 NNE 33 41 18 22 1018.9 1018.8 0.0
22/04:00pm 18.8 13.6 13.4 71 3.1 NNE 33 41 18 22 1019.1 1019.0 0.0
22/03:30pm 18.6 12.9 13.0 70 3.2 NNE 35 44 19 24 1019.4 1019.3 0.0
22/03:00pm 18.6 12.7 12.4 67 3.4 NNE 35 46 19 25 1019.7 1019.6 0.0
22/02:30pm 18.4 11.2 11.9 66 3.6 NNE 41 48 22 26 1020.0 1019.9 0.0
22/02:00pm 18.5 11.8 12.3 67 3.4 NNE 39 46 21 25 1020.5 1020.4 0.0
22/01:30pm 18.4 11.8 11.5 64 3.8 NNE 37 46 20 25 1021.1 1021.0 0.0
22/01:00pm 18.1 11.1 11.4 65 3.6 NNE 39 44 21 24 1021.6 1021.5 0.0
22/12:30pm 17.6 10.6 10.0 61 4.0 NNE 37 44 20 24 1022.1 1022.0 0.0
22/12:00pm 17.9 11.4 10.3 61 4.0 NNE 35 46 19 25 1022.8 1022.7 0.0
22/11:30am 17.4 9.5 9.3 59 4.2 NNE 41 50 22 27 1023.3 1023.2 0.0
22/11:00am 17.3 9.0 9.5 60 4.1 N 43 50 23 27 1023.9 1023.9 0.0
22/10:30am 17.4 9.9 9.3 59 4.2 N 39 50 21 27 1024.5 1024.5 0.0
22/10:00am 17.3 10.2 9.5 60 4.1 N 37 52 20 28 1024.7 1024.7 0.0
22/09:30am 16.9 9.9 9.8 63 3.7 N 37 50 20 27 1024.9 1024.9 0.0
22/09:00am 16.7 10.0 9.6 63 3.7 N 35 46 19 25 1024.9 1024.9 0.0
22/08:30am 16.6 8.9 8.6 59 4.1 N 39 50 21 27 1025.0 1025.0 0.0
22/08:00am 16.3 8.4 8.0 58 4.2 N 39 52 21 28 1025.2 1025.2 0.0
22/07:30am 16.1 8.6 8.1 59 4.0 N 37 48 20 26 1025.3 1025.3 0.0
22/07:00am 15.8 7.6 8.1 60 3.9 N 41 52 22 28 1025.2 1025.2 0.0
22/06:30am 15.4 7.9 7.9 61 3.8 N 37 50 20 27 1025.4 1025.4 0.0
22/06:00am 15.4 7.8 8.9 65 3.3 N 39 48 21 26 1025.3 1025.3 0.0
22/05:30am 15.4 8.6 9.1 66 3.2 N 35 46 19 25 1025.5 1025.5 0.0
22/05:00am 15.8 9.9 9.0 64 3.5 N 30 41 16 22 1025.6 1025.6 0.0
22/04:30am 15.3 9.1 9.4 68 3.0 N 32 39 17 21 1025.7 1025.7 0.0
22/04:00am 15.4 9.1 9.1 66 3.2 N 32 43 17 23 1026.0 1026.0 0.0
22/03:30am 15.6 9.1 9.1 65 3.3 N 33 43 18 23 1026.4 1026.4 0.0
22/03:00am 15.7 9.6 9.6 67 3.2 N 32 44 17 24 1026.7 1026.7 0.0
22/02:30am 16.0 9.6 8.5 61 3.8 NNW 32 43 17 23 1027.2 1027.2 0.0
22/02:00am 16.1 8.8 7.3 56 4.4 N 35 46 19 25 1027.7 1027.7 0.0
22/01:30am 16.0 9.8 9.9 67 3.2 NNW 33 46 18 25 1028.1 1028.1 0.0
22/01:00am 15.7 10.8 10.0 69 3.0 NNW 26 33 14 18 1028.6 1028.6 0.0
22/12:30am 15.8 10.5 9.7 67 3.2 NNW 28 35 15 19 1029.0 1029.0 0.0
22/12:00am 15.7 10.8 9.8 68 3.1 NNW 26 35 14 19 1029.5 1029.5 0.0
 
Date/Time
EDT
Temp
°C
App
Temp
°C
Dew
Point
Rel
Hum
%
Delta-T
°C
Wind Press
QNH
hPa
Press
MSL
hPa
Rain
since 9 am
mm
Dir
 
Spd
km/h
Gust
km/h
Spd
kts
Gust
kts
21/11:30pm 15.8 10.2 10.1 69 3.0 NNW 30 35 16 19 1029.7 1029.7 0.0
21/11:00pm 15.9 10.7 10.2 69 3.0 NNW 28 35 15 19 1029.9 1029.9 0.0
21/10:30pm 16.1 10.5 10.2 68 3.1 NNW 30 37 16 20 1030.0 1030.0 0.0
21/10:00pm 16.2 11.8 10.5 69 3.0 N 24 33 13 18 1030.2 1030.2 0.0
21/09:30pm 16.6 10.9 9.8 64 3.6 N 30 41 16 22 1030.2 1030.2 0.0
21/09:00pm 16.6 10.5 9.8 64 3.5 NNE 32 39 17 21 1030.2 1030.2 0.0
21/08:30pm 16.6 10.4 9.5 63 3.7 NNE 32 39 17 21 1030.1 1030.1 0.0
21/08:00pm 16.6 10.3 9.1 61 3.9 NNE 32 39 17 21 1029.8 1029.8 0.0
21/07:30pm 16.4 10.1 8.9 61 3.9 NNE 32 39 17 21 1029.6 1029.6 0.0
21/07:00pm 16.4 10.8 10.0 66 3.3 NNE 30 39 16 21 1029.6 1029.6 0.0
21/06:30pm 16.4 10.8 10.0 66 3.4 NNE 30 37 16 20 1029.5 1029.5 0.0
21/06:00pm 16.2 11.0 10.1 67 3.2 NNE 28 35 15 19 1029.6 1029.6 0.0
21/05:30pm 15.9 10.0 10.4 70 2.9 NNE 32 37 17 20 1029.5 1029.5 0.0
21/05:00pm 16.3 11.1 10.4 68 3.1 NNE 28 37 15 20 1029.7 1029.7 0.0
21/04:30pm 16.1 10.9 10.2 68 3.1 NNE 28 35 15 19 1029.7 1029.7 0.0
21/04:00pm 16.3 11.7 9.7 65 3.4 NNE 24 32 13 17 1029.9 1029.9 0.0
21/03:30pm 16.7 11.8 9.9 64 3.6 NE 26 33 14 18 1030.3 1030.3 0.0
21/03:00pm 16.6 10.8 9.3 62 3.8 NE 30 35 16 19 1030.7 1030.7 0.0
21/02:30pm 16.5 11.0 9.2 62 3.8 NE 28 35 15 19 1031.0 1031.0 0.0
21/02:00pm 17.1 11.2 9.0 59 4.2 NE 30 39 16 21 1031.5 1031.5 0.0
21/01:30pm 17.1 12.1 8.0 55 4.6 NE 24 30 13 16 1031.9 1031.9 0.0
21/01:00pm 17.6 13.1 8.7 56 4.6 NE 22 30 12 16 1032.1 1032.1 0.0
21/12:30pm 17.2 13.2 8.9 58 4.3 NE 20 26 11 14 1032.3 1032.3 0.0
21/12:00pm 16.3 12.0 8.0 58 4.2 NE 20 28 11 15 1032.8 1032.7 0.0
21/11:30am 16.4 14.7 8.4 59 4.1 ENE 7 9 4 5 1033.2 1033.1 0.0
21/11:00am 16.0 14.8 8.2 60 3.9 NE 4 7 2 4 1033.4 1033.3 0.0
21/10:30am 15.3 14.4 7.6 60 3.8 ENE 2 6 1 3 1033.4 1033.3 0.0
21/10:00am 15.3 14.5 8.1 62 3.6 E 2 4 1 2 1033.5 1033.4 0.0
21/09:30am 15.2 13.9 9.3 68 3.0 W 6 9 3 5 1033.4 1033.3 0.0
21/09:00am 14.5 12.9 10.1 75 2.3 WNW 9 13 5 7 1033.2 1033.1 0.0
21/08:30am 14.2 12.9 10.0 76 2.2 W 7 9 4 5 1033.0 1032.9 0.0
21/08:00am 13.7 12.1 10.3 80 1.8 W 9 11 5 6 1032.7 1032.6 0.0
21/07:30am 13.2 10.8 10.0 81 1.7 W 13 15 7 8 1032.5 1032.4 0.0
21/07:00am 12.9 10.4 9.7 81 1.6 W 13 15 7 8 1032.2 1032.2 0.0
21/06:30am 12.8 10.0 10.0 83 1.4 W 15 17 8 9 1031.9 1031.9 0.0
21/06:00am 12.9 10.5 9.9 82 1.5 W 13 19 7 10 1031.8 1031.8 0.0
21/05:30am 13.0 10.1 9.6 80 1.7 WNW 15 19 8 10 1031.7 1031.7 0.0
21/05:00am 13.9 12.1 9.5 75 2.2 WNW 9 20 5 11 1031.6 1031.6 0.0
21/04:30am 14.2 12.5 7.7 65 3.2 ENE 6 9 3 5 1031.6 1031.6 0.0
21/04:00am 14.3 12.2 5.7 56 4.1 ESE 6 13 3 7 1031.8 1031.8 0.0
21/03:30am 14.4 12.2 6.0 57 4.0 SE 7 13 4 7 1031.9 1031.9 0.0
21/03:00am 14.4 10.7 6.3 58 3.9 E 15 20 8 11 1032.1 1032.1 0.0
21/02:30am 14.4 10.6 5.7 56 4.1 E 15 20 8 11 1032.2 1032.2 0.0
21/02:00am 14.5 10.8 6.1 57 4.0 E 15 19 8 10 1032.3 1032.3 0.0
21/01:30am 14.4 10.6 6.0 57 4.0 ESE 15 22 8 12 1032.7 1032.6 0.0
21/01:00am 14.5 10.6 7.3 62 3.5 ESE 17 24 9 13 1032.8 1032.7 0.0
21/12:30am 14.6 10.2 7.6 63 3.5 E 20 26 11 14 1032.9 1032.8 0.0
21/12:00am 14.6 10.4 7.6 63 3.4 E 19 24 10 13 1033.1 1033.0 0.0
 
Date/Time
EDT
Temp
°C
App
Temp
°C
Dew
Point
Rel
Hum
%
Delta-T
°C
Wind Press
QNH
hPa
Press
MSL
hPa
Rain
since 9 am
mm
Dir
 
Spd
km/h
Gust
km/h
Spd
kts
Gust
kts
20/11:30pm 14.7 10.7 6.8 59 3.9 ESE 17 20 9 11 1033.1 1033.0 0.0
20/11:00pm 14.6 10.8 7.4 62 3.5 ESE 17 22 9 12 1033.0 1032.9 0.0
20/10:30pm 14.7 10.8 7.3 61 3.6 ESE 17 26 9 14 1033.1 1033.0 0.0
20/10:00pm 14.6 11.3 6.2 57 4.0 ESE 13 22 7 12 1033.3 1033.2 0.0
20/09:30pm 14.4 11.2 6.7 60 3.7 ESE 13 19 7 10 1033.3 1033.2 0.0
20/09:00pm 14.5 10.3 7.3 62 3.5 E 19 22 10 12 1033.2 1033.1 0.0
20/08:30pm 14.5 11.1 7.5 63 3.5 E 15 28 8 15 1032.9 1032.8 0.0
20/08:00pm 14.6 10.4 7.4 62 3.5 ESE 19 30 10 16 1032.5 1032.4 0.0
20/07:30pm 14.5 10.3 7.3 62 3.5 ESE 19 30 10 16 1032.3 1032.3 0.0
20/07:00pm 14.7 10.7 8.2 65 3.2 SE 19 20 10 11 1032.0 1032.0 0.0
20/06:30pm 14.7 10.2 7.0 60 3.8 SE 20 30 11 16 1031.8 1031.8 0.0
20/06:00pm 14.8 10.4 7.6 62 3.5 SE 20 26 11 14 1031.5 1031.5 0.0
20/05:30pm 14.9 10.8 7.7 62 3.6 SE 19 24 10 13 1031.4 1031.4 0.0
20/05:00pm 15.2 11.0 7.5 60 3.8 SE 19 22 10 12 1031.3 1031.3 0.0
20/04:30pm 15.4 11.6 7.7 60 3.8 SE 17 24 9 13 1031.1 1031.1 0.0
20/04:00pm 15.3 10.9 7.3 59 3.9 SSE 20 26 11 14 1031.1 1031.1 0.0
20/03:30pm 15.3 10.6 7.8 61 3.8 SSE 22 30 12 16 1031.0 1031.0 0.0
20/03:00pm 15.1 9.7 8.1 63 3.5 SSE 26 33 14 18 1031.1 1031.1 0.0
20/02:30pm 15.3 10.1 8.8 65 3.3 SE 26 32 14 17 1031.1 1031.1 0.0
20/02:00pm 15.4 9.8 8.9 65 3.3 SE 28 35 15 19 1031.3 1031.3 0.0
20/01:30pm 15.3 9.5 9.4 68 3.0 SE 30 35 16 19 1031.4 1031.4 0.0

Other Formats:

Comma delimited format used in spreadsheet applications
http://www.bom.gov.au/fwo/IDN60801/IDN60801.94939.axf

JavaScript Object Notation format (JSON) in row-major order
http://www.bom.gov.au/fwo/IDN60801/IDN60801.94939.json